sensor_id;sensor_type;location;lat;lon;timestamp;pressure;altitude;pressure_sealevel;temperature;humidity
54236;BME280;40151;43.606;1.472;2023-03-26T00:00:46;99086.75;;;18.71;53.03
54236;BME280;40151;43.606;1.472;2023-03-26T00:03:15;99087.75;;;18.69;52.91
54236;BME280;40151;43.606;1.472;2023-03-26T00:05:42;99088.59;;;18.69;52.66
54236;BME280;40151;43.606;1.472;2023-03-26T00:08:08;99084.19;;;18.70;52.96
54236;BME280;40151;43.606;1.472;2023-03-26T00:10:35;99087.75;;;18.69;52.84
54236;BME280;40151;43.606;1.472;2023-03-26T00:13:01;99073.69;;;18.68;52.96
54236;BME280;40151;43.606;1.472;2023-03-26T00:15:27;99071.03;;;18.68;52.66
54236;BME280;40151;43.606;1.472;2023-03-26T00:17:52;99094.06;;;18.66;52.58
54236;BME280;40151;43.606;1.472;2023-03-26T00:20:18;99099.34;;;18.66;52.81
54236;BME280;40151;43.606;1.472;2023-03-26T00:22:44;99098.56;;;18.64;52.67
54236;BME280;40151;43.606;1.472;2023-03-26T00:25:10;99101.13;;;18.65;52.83
54236;BME280;40151;43.606;1.472;2023-03-26T00:27:35;99092.38;;;18.65;52.67
54236;BME280;40151;43.606;1.472;2023-03-26T00:30:02;99079.25;;;18.63;52.40
54236;BME280;40151;43.606;1.472;2023-03-26T00:32:29;99078.38;;;18.63;52.57
54236;BME280;40151;43.606;1.472;2023-03-26T00:34:56;99074.78;;;18.64;52.56
54236;BME280;40151;43.606;1.472;2023-03-26T00:37:22;99097.81;;;18.62;52.75
54236;BME280;40151;43.606;1.472;2023-03-26T00:39:54;99085.56;;;18.61;52.84
54236;BME280;40151;43.606;1.472;2023-03-26T00:42:24;99082.16;;;18.59;52.77
54236;BME280;40151;43.606;1.472;2023-03-26T00:44:49;99083.00;;;18.59;53.02
54236;BME280;40151;43.606;1.472;2023-03-26T00:47:19;99090.16;;;18.57;52.73
54236;BME280;40151;43.606;1.472;2023-03-26T00:49:45;99095.44;;;18.57;52.69
54236;BME280;40151;43.606;1.472;2023-03-26T00:52:13;99077.78;;;18.58;52.91
54236;BME280;40151;43.606;1.472;2023-03-26T00:54:43;99077.03;;;18.56;52.63
54236;BME280;40151;43.606;1.472;2023-03-26T00:57:08;99075.13;;;18.58;52.79
54236;BME280;40151;43.606;1.472;2023-03-26T00:59:34;99062.03;;;18.56;52.74
54236;BME280;40151;43.606;1.472;2023-03-26T01:02:00;99074.47;;;18.54;52.88
54236;BME280;40151;43.606;1.472;2023-03-26T01:04:28;99066.47;;;18.56;52.65
54236;BME280;40151;43.606;1.472;2023-03-26T01:06:56;99072.78;;;18.53;52.91
54236;BME280;40151;43.606;1.472;2023-03-26T01:09:29;99063.06;;;18.54;52.87
54236;BME280;40151;43.606;1.472;2023-03-26T01:11:58;99057.78;;;18.54;52.83
54236;BME280;40151;43.606;1.472;2023-03-26T01:14:25;99059.56;;;18.53;52.95
54236;BME280;40151;43.606;1.472;2023-03-26T01:16:59;99060.31;;;18.55;52.59
54236;BME280;40151;43.606;1.472;2023-03-26T01:19:41;99060.50;;;18.52;52.84
54236;BME280;40151;43.606;1.472;2023-03-26T01:22:12;99068.44;;;18.52;52.66
54236;BME280;40151;43.606;1.472;2023-03-26T01:24:39;99056.25;;;18.49;52.70
54236;BME280;40151;43.606;1.472;2023-03-26T01:36:10;99060.50;;;18.52;52.70
54236;BME280;40151;43.606;1.472;2023-03-26T01:41:47;99064.94;;;18.51;52.87
54236;BME280;40151;43.606;1.472;2023-03-26T01:44:37;99056.16;;;18.51;52.72
54236;BME280;40151;43.606;1.472;2023-03-26T01:47:06;99064.94;;;18.51;52.62
54236;BME280;40151;43.606;1.472;2023-03-26T01:49:33;99055.31;;;18.50;52.56
54236;BME280;40151;43.606;1.472;2023-03-26T01:51:59;99041.16;;;18.51;52.80
54236;BME280;40151;43.606;1.472;2023-03-26T01:54:27;99035.03;;;18.51;52.59
54236;BME280;40151;43.606;1.472;2023-03-26T02:02:12;99049.25;;;18.48;52.57
54236;BME280;40151;43.606;1.472;2023-03-26T02:04:53;99056.25;;;18.49;52.78
54236;BME280;40151;43.606;1.472;2023-03-26T02:07:26;99069.38;;;18.51;52.52
54236;BME280;40151;43.606;1.472;2023-03-26T02:09:58;99068.59;;;18.49;52.50
54236;BME280;40151;43.606;1.472;2023-03-26T02:12:24;99072.19;;;18.48;52.61
54236;BME280;40151;43.606;1.472;2023-03-26T02:14:50;99085.38;;;18.48;52.87
54236;BME280;40151;43.606;1.472;2023-03-26T02:17:16;99097.84;;;18.46;52.82
54236;BME280;40151;43.606;1.472;2023-03-26T02:19:43;99093.41;;;18.46;52.60
54236;BME280;40151;43.606;1.472;2023-03-26T02:22:10;99109.25;;;18.46;52.53
54236;BME280;40151;43.606;1.472;2023-03-26T02:24:43;99104.91;;;18.45;52.79
54236;BME280;40151;43.606;1.472;2023-03-26T02:27:09;99118.13;;;18.45;52.75
54236;BME280;40151;43.606;1.472;2023-03-26T02:29:37;99094.44;;;18.44;52.50
54236;BME280;40151;43.606;1.472;2023-03-26T02:32:09;99101.25;;;18.48;52.81
54236;BME280;40151;43.606;1.472;2023-03-26T02:34:39;99112.00;;;18.45;52.60
54236;BME280;40151;43.606;1.472;2023-03-26T02:37:04;99111.13;;;18.44;52.54
54236;BME280;40151;43.606;1.472;2023-03-26T02:39:30;99114.72;;;18.43;52.84
54236;BME280;40151;43.606;1.472;2023-03-26T02:41:55;99118.13;;;18.45;52.66
54236;BME280;40151;43.606;1.472;2023-03-26T02:44:21;99120.88;;;18.44;52.55
54236;BME280;40151;43.606;1.472;2023-03-26T02:46:46;99120.88;;;18.44;52.57
54236;BME280;40151;43.606;1.472;2023-03-26T02:49:11;99117.28;;;18.45;52.54
54236;BME280;40151;43.606;1.472;2023-03-26T02:51:37;99119.06;;;18.44;52.55
54236;BME280;40151;43.606;1.472;2023-03-26T02:54:03;99128.78;;;18.44;52.65
54236;BME280;40151;43.606;1.472;2023-03-26T02:56:28;99133.28;;;18.42;52.84
54236;BME280;40151;43.606;1.472;2023-03-26T02:58:54;99141.28;;;18.40;52.67
54236;BME280;40151;43.606;1.472;2023-03-26T03:01:19;99153.59;;;18.41;52.63
54236;BME280;40151;43.606;1.472;2023-03-26T03:03:45;99138.75;;;18.38;52.54
54236;BME280;40151;43.606;1.472;2023-03-26T03:06:15;99147.59;;;18.37;52.69
54236;BME280;40151;43.606;1.472;2023-03-26T03:08:43;99146.75;;;18.37;52.52
54236;BME280;40151;43.606;1.472;2023-03-26T03:11:19;99146.91;;;18.34;52.43
54236;BME280;40151;43.606;1.472;2023-03-26T03:13:46;99145.22;;;18.33;52.28
54236;BME280;40151;43.606;1.472;2023-03-26T03:16:12;99134.84;;;18.30;52.34
54236;BME280;40151;43.606;1.472;2023-03-26T03:18:37;99144.44;;;18.31;52.28
54236;BME280;40151;43.606;1.472;2023-03-26T03:21:04;99136.69;;;18.28;52.62
54236;BME280;40151;43.606;1.472;2023-03-26T03:23:30;99126.22;;;18.26;52.56
54236;BME280;40151;43.606;1.472;2023-03-26T03:25:56;99113.94;;;18.25;52.76
54236;BME280;40151;43.606;1.472;2023-03-26T03:28:23;99121.84;;;18.25;52.64
54236;BME280;40151;43.606;1.472;2023-03-26T03:30:49;99142.97;;;18.25;52.60
54236;BME280;40151;43.606;1.472;2023-03-26T03:33:18;99151.00;;;18.23;52.37
54236;BME280;40151;43.606;1.472;2023-03-26T03:35:45;99154.56;;;18.22;52.71
54236;BME280;40151;43.606;1.472;2023-03-26T03:38:12;99163.44;;;18.21;52.69
54236;BME280;40151;43.606;1.472;2023-03-26T03:40:37;99170.41;;;18.22;52.66
54236;BME280;40151;43.606;1.472;2023-03-26T03:43:03;99181.91;;;18.21;52.77
54236;BME280;40151;43.606;1.472;2023-03-26T03:45:28;99182.72;;;18.23;52.60
54236;BME280;40151;43.606;1.472;2023-03-26T03:47:53;99189.84;;;18.21;52.56
54236;BME280;40151;43.606;1.472;2023-03-26T03:50:19;99202.97;;;18.23;52.72
54236;BME280;40151;43.606;1.472;2023-03-26T03:52:45;99209.13;;;18.23;52.40
54236;BME280;40151;43.606;1.472;2023-03-26T03:55:10;99211.66;;;18.25;52.56
54236;BME280;40151;43.606;1.472;2023-03-26T03:57:38;99219.69;;;18.23;52.68
54236;BME280;40151;43.606;1.472;2023-03-26T04:00:05;99224.97;;;18.23;52.63
54236;BME280;40151;43.606;1.472;2023-03-26T04:02:33;99217.94;;;18.22;52.49
54236;BME280;40151;43.606;1.472;2023-03-26T04:05:00;99217.94;;;18.22;52.66
54236;BME280;40151;43.606;1.472;2023-03-26T04:07:27;99221.53;;;18.21;52.75
54236;BME280;40151;43.606;1.472;2023-03-26T04:09:54;99218.81;;;18.23;52.28
54236;BME280;40151;43.606;1.472;2023-03-26T04:12:20;99223.34;;;18.21;52.71
54236;BME280;40151;43.606;1.472;2023-03-26T04:14:45;99223.22;;;18.22;52.68
54236;BME280;40151;43.606;1.472;2023-03-26T04:17:11;99240.09;;;18.20;52.56
54236;BME280;40151;43.606;1.472;2023-03-26T04:19:38;99231.25;;;18.21;52.29
54236;BME280;40151;43.606;1.472;2023-03-26T04:22:05;99246.09;;;18.23;52.54
54236;BME280;40151;43.606;1.472;2023-03-26T04:24:31;99244.34;;;18.22;52.38
54236;BME280;40151;43.606;1.472;2023-03-26T04:27:03;99238.25;;;18.22;52.58
54236;BME280;40151;43.606;1.472;2023-03-26T04:29:33;99244.34;;;18.22;52.41
54236;BME280;40151;43.606;1.472;2023-03-26T04:32:02;99249.75;;;18.21;52.45
54236;BME280;40151;43.606;1.472;2023-03-26T04:34:32;99247.94;;;18.21;52.75
54236;BME280;40151;43.606;1.472;2023-03-26T04:37:00;99246.25;;;18.20;52.57
54236;BME280;40151;43.606;1.472;2023-03-26T04:39:25;99258.50;;;18.21;52.64
54236;BME280;40151;43.606;1.472;2023-03-26T04:41:54;99253.22;;;18.21;52.66
54236;BME280;40151;43.606;1.472;2023-03-26T04:44:19;99255.88;;;18.21;52.41
54236;BME280;40151;43.606;1.472;2023-03-26T04:46:49;99244.53;;;18.19;52.64
54236;BME280;40151;43.606;1.472;2023-03-26T04:49:17;99247.19;;;18.19;52.46
54236;BME280;40151;43.606;1.472;2023-03-26T04:51:42;99245.38;;;18.20;52.63
54236;BME280;40151;43.606;1.472;2023-03-26T04:54:12;99256.81;;;18.20;52.69
54236;BME280;40151;43.606;1.472;2023-03-26T04:56:50;99250.59;;;18.21;52.46
54236;BME280;40151;43.606;1.472;2023-03-26T04:59:20;99269.06;;;18.21;52.34
54236;BME280;40151;43.606;1.472;2023-03-26T05:01:52;99258.50;;;18.21;52.43
54236;BME280;40151;43.606;1.472;2023-03-26T05:04:20;99265.50;;;18.22;52.41
54236;BME280;40151;43.606;1.472;2023-03-26T05:06:46;99258.50;;;18.21;52.32
54236;BME280;40151;43.606;1.472;2023-03-26T05:09:11;99267.22;;;18.23;52.32
54236;BME280;40151;43.606;1.472;2023-03-26T05:11:38;99258.50;;;18.21;52.58
54236;BME280;40151;43.606;1.472;2023-03-26T05:14:04;99256.66;;;18.23;52.76
54236;BME280;40151;43.606;1.472;2023-03-26T05:16:30;99258.50;;;18.21;52.29
54236;BME280;40151;43.606;1.472;2023-03-26T05:18:56;99272.66;;;18.20;52.65
54236;BME280;40151;43.606;1.472;2023-03-26T05:21:21;99269.06;;;18.21;52.31
54236;BME280;40151;43.606;1.472;2023-03-26T05:23:47;99273.59;;;18.19;52.31
54236;BME280;40151;43.606;1.472;2023-03-26T05:26:12;99273.66;;;18.18;52.50
54236;BME280;40151;43.606;1.472;2023-03-26T05:28:38;99272.81;;;18.17;52.55
54236;BME280;40151;43.606;1.472;2023-03-26T05:31:03;99275.47;;;18.17;52.49
54236;BME280;40151;43.606;1.472;2023-03-26T05:33:29;99279.13;;;18.15;52.51
54236;BME280;40151;43.606;1.472;2023-03-26T05:36:06;99279.13;;;18.15;52.48
54236;BME280;40151;43.606;1.472;2023-03-26T05:38:34;99292.41;;;18.13;52.37
54236;BME280;40151;43.606;1.472;2023-03-26T05:41:05;99287.13;;;18.13;52.55
54236;BME280;40151;43.606;1.472;2023-03-26T05:43:31;99300.38;;;18.11;52.29
54236;BME280;40151;43.606;1.472;2023-03-26T05:45:56;99299.53;;;18.11;52.47
54236;BME280;40151;43.606;1.472;2023-03-26T05:48:22;99303.09;;;18.10;52.65
54236;BME280;40151;43.606;1.472;2023-03-26T05:50:51;99311.97;;;18.09;52.51
54236;BME280;40151;43.606;1.472;2023-03-26T05:53:18;99303.09;;;18.10;52.56
54236;BME280;40151;43.606;1.472;2023-03-26T05:55:45;99303.28;;;18.07;52.63
54236;BME280;40151;43.606;1.472;2023-03-26T05:58:14;99305.84;;;18.08;52.32
54236;BME280;40151;43.606;1.472;2023-03-26T06:00:40;99306.84;;;18.06;52.60
54236;BME280;40151;43.606;1.472;2023-03-26T06:03:05;99301.56;;;18.06;52.57
54236;BME280;40151;43.606;1.472;2023-03-26T06:05:36;99305.09;;;18.05;52.39
54236;BME280;40151;43.606;1.472;2023-03-26T06:08:03;99316.50;;;18.05;52.56
54236;BME280;40151;43.606;1.472;2023-03-26T06:10:28;99330.72;;;18.03;52.49
54236;BME280;40151;43.606;1.472;2023-03-26T06:12:54;99311.31;;;18.04;52.69
54236;BME280;40151;43.606;1.472;2023-03-26T06:15:20;99298.09;;;18.04;52.47
54236;BME280;40151;43.606;1.472;2023-03-26T06:17:45;99317.47;;;18.04;52.41
54236;BME280;40151;43.606;1.472;2023-03-26T06:20:11;99314.78;;;18.06;52.33
54236;BME280;40151;43.606;1.472;2023-03-26T06:22:37;99320.94;;;18.05;52.20
54236;BME280;40151;43.606;1.472;2023-03-26T06:25:02;99338.56;;;18.04;52.39
54236;BME280;40151;43.606;1.472;2023-03-26T06:27:28;99344.78;;;18.03;52.72
54236;BME280;40151;43.606;1.472;2023-03-26T06:29:53;99345.69;;;18.02;52.27
54236;BME280;40151;43.606;1.472;2023-03-26T06:32:19;99345.81;;;18.01;52.35
54236;BME280;40151;43.606;1.472;2023-03-26T06:34:44;99352.94;;;17.98;52.54
54236;BME280;40151;43.606;1.472;2023-03-26T06:37:10;99354.78;;;17.96;52.43
54236;BME280;40151;43.606;1.472;2023-03-26T06:39:35;99356.50;;;17.97;52.56
54236;BME280;40151;43.606;1.472;2023-03-26T06:42:01;99356.66;;;17.94;52.74
54236;BME280;40151;43.606;1.472;2023-03-26T06:44:26;99348.75;;;17.94;52.43
54236;BME280;40151;43.606;1.472;2023-03-26T06:46:52;99357.69;;;17.92;52.60
54236;BME280;40151;43.606;1.472;2023-03-26T06:49:17;99348.81;;;17.93;52.71
54236;BME280;40151;43.606;1.472;2023-03-26T06:51:42;99347.94;;;17.92;52.66
54236;BME280;40151;43.606;1.472;2023-03-26T06:54:08;99351.38;;;17.94;52.36
54236;BME280;40151;43.606;1.472;2023-03-26T06:56:34;99360.22;;;17.93;52.80
54236;BME280;40151;43.606;1.472;2023-03-26T06:59:00;99348.81;;;17.93;52.65
54236;BME280;40151;43.606;1.472;2023-03-26T07:01:25;99354.09;;;17.93;52.59
54236;BME280;40151;43.606;1.472;2023-03-26T07:03:50;99342.66;;;17.92;52.72
54236;BME280;40151;43.606;1.472;2023-03-26T07:06:16;99341.84;;;17.92;52.44
54236;BME280;40151;43.606;1.472;2023-03-26T07:08:41;99334.00;;;17.90;52.67
54236;BME280;40151;43.606;1.472;2023-03-26T07:11:07;99344.38;;;17.93;52.80
54236;BME280;40151;43.606;1.472;2023-03-26T07:13:32;99358.50;;;17.92;52.44
54236;BME280;40151;43.606;1.472;2023-03-26T07:15:58;99344.38;;;17.93;52.42
54236;BME280;40151;43.606;1.472;2023-03-26T07:18:23;99323.44;;;17.90;52.58
54236;BME280;40151;43.606;1.472;2023-03-26T07:20:49;99347.94;;;17.92;52.34
54236;BME280;40151;43.606;1.472;2023-03-26T07:23:15;99355.88;;;17.92;52.57
54236;BME280;40151;43.606;1.472;2023-03-26T07:25:45;99340.97;;;17.91;52.71
54236;BME280;40151;43.606;1.472;2023-03-26T07:33:42;99340.13;;;17.91;52.55
54236;BME280;40151;43.606;1.472;2023-03-26T07:36:19;99352.47;;;17.90;52.56
54236;BME280;40151;43.606;1.472;2023-03-26T07:39:13;99335.69;;;17.91;52.56
54236;BME280;40151;43.606;1.472;2023-03-26T07:41:58;99335.69;;;17.91;52.53
54236;BME280;40151;43.606;1.472;2023-03-26T07:44:40;99340.97;;;17.91;52.42
54236;BME280;40151;43.606;1.472;2023-03-26T07:47:35;99360.38;;;17.90;52.22
54236;BME280;40151;43.606;1.472;2023-03-26T07:50:01;99357.75;;;17.90;52.38
54236;BME280;40151;43.606;1.472;2023-03-26T07:52:27;99365.66;;;17.90;52.25
54236;BME280;40151;43.606;1.472;2023-03-26T07:54:55;99362.97;;;17.92;52.41
54236;BME280;40151;43.606;1.472;2023-03-26T08:00:13;99371.72;;;17.92;52.27
54236;BME280;40151;43.606;1.472;2023-03-26T08:05:23;99327.78;;;17.91;52.56
54236;BME280;40151;43.606;1.472;2023-03-26T08:11:09;99356.81;;;17.91;52.27
54236;BME280;40151;43.606;1.472;2023-03-26T08:19:51;99359.50;;;17.90;52.53
54236;BME280;40151;43.606;1.472;2023-03-26T08:22:22;99362.25;;;17.88;52.57
54236;BME280;40151;43.606;1.472;2023-03-26T08:28:07;99374.53;;;17.89;52.25
54236;BME280;40151;43.606;1.472;2023-03-26T08:30:36;99383.38;;;17.88;52.40
54236;BME280;40151;43.606;1.472;2023-03-26T08:33:13;99372.81;;;17.88;52.31
54236;BME280;40151;43.606;1.472;2023-03-26T08:35:41;99365.72;;;17.89;52.29
54236;BME280;40151;43.606;1.472;2023-03-26T08:38:14;99365.66;;;17.90;52.36
54236;BME280;40151;43.606;1.472;2023-03-26T08:43:46;99384.22;;;17.89;52.52
54236;BME280;40151;43.606;1.472;2023-03-26T08:49:02;99383.38;;;17.88;52.53
54236;BME280;40151;43.606;1.472;2023-03-26T08:54:46;99389.50;;;17.89;52.29
54236;BME280;40151;43.606;1.472;2023-03-26T08:57:36;99393.84;;;17.90;52.37
54236;BME280;40151;43.606;1.472;2023-03-26T09:10:50;99410.59;;;17.89;52.30
54236;BME280;40151;43.606;1.472;2023-03-26T09:35:04;99402.94;;;17.84;52.54
54236;BME280;40151;43.606;1.472;2023-03-26T09:38:10;99415.19;;;17.85;52.51
54236;BME280;40151;43.606;1.472;2023-03-26T10:00:21;99410.97;;;17.81;52.58
54236;BME280;40151;43.606;1.472;2023-03-26T10:22:18;99409.13;;;17.83;52.45
54236;BME280;40151;43.606;1.472;2023-03-26T10:36:08;99384.28;;;17.87;52.46
54236;BME280;40151;43.606;1.472;2023-03-26T10:41:31;99385.22;;;17.86;52.50
54236;BME280;40151;43.606;1.472;2023-03-26T10:46:51;99381.63;;;17.87;52.31
54236;BME280;40151;43.606;1.472;2023-03-26T10:52:15;99381.50;;;17.90;52.59
54236;BME280;40151;43.606;1.472;2023-03-26T10:54:49;99377.16;;;17.89;52.52
54236;BME280;40151;43.606;1.472;2023-03-26T10:57:34;99381.50;;;17.90;52.15
54236;BME280;40151;43.606;1.472;2023-03-26T11:00:14;99388.50;;;17.91;52.51
54236;BME280;40151;43.606;1.472;2023-03-26T11:03:39;99380.63;;;17.90;52.32
54236;BME280;40151;43.606;1.472;2023-03-26T11:06:08;99383.22;;;17.91;52.21
54236;BME280;40151;43.606;1.472;2023-03-26T11:08:54;99370.94;;;17.90;52.47
54236;BME280;40151;43.606;1.472;2023-03-26T11:14:16;99350.53;;;17.94;52.42
54236;BME280;40151;43.606;1.472;2023-03-26T11:19:53;99351.38;;;17.94;52.29
54236;BME280;40151;43.606;1.472;2023-03-26T11:30:56;99323.75;;;18.02;52.35
54236;BME280;40151;43.606;1.472;2023-03-26T11:33:31;99333.38;;;18.03;52.24
54236;BME280;40151;43.606;1.472;2023-03-26T11:36:04;99332.59;;;18.01;52.39
54236;BME280;40151;43.606;1.472;2023-03-26T11:38:40;99324.50;;;18.04;52.31
54236;BME280;40151;43.606;1.472;2023-03-26T11:41:17;99327.22;;;18.02;52.29
54236;BME280;40151;43.606;1.472;2023-03-26T11:43:46;99331.50;;;18.05;52.31
54236;BME280;40151;43.606;1.472;2023-03-26T11:46:17;99327.16;;;18.04;52.17
54236;BME280;40151;43.606;1.472;2023-03-26T11:48:47;99308.59;;;18.05;52.31
54236;BME280;40151;43.606;1.472;2023-03-26T11:51:19;99322.69;;;18.06;52.39
54236;BME280;40151;43.606;1.472;2023-03-26T11:53:47;99310.25;;;18.08;52.19
54236;BME280;40151;43.606;1.472;2023-03-26T11:56:22;99309.94;;;18.14;52.08
54236;BME280;40151;43.606;1.472;2023-03-26T12:01:49;99288.88;;;18.13;52.17
54236;BME280;40151;43.606;1.472;2023-03-26T12:04:16;99288.81;;;18.14;51.74
54236;BME280;40151;43.606;1.472;2023-03-26T12:06:57;99284.47;;;18.13;51.79
54236;BME280;40151;43.606;1.472;2023-03-26T12:09:29;99273.84;;;18.15;51.83
54236;BME280;40151;43.606;1.472;2023-03-26T12:11:59;99281.66;;;18.16;51.83
54236;BME280;40151;43.606;1.472;2023-03-26T12:14:29;99279.94;;;18.15;51.98
54236;BME280;40151;43.606;1.472;2023-03-26T12:19:24;99271.78;;;18.20;51.84
54236;BME280;40151;43.606;1.472;2023-03-26T12:21:53;99269.25;;;18.18;51.63
54236;BME280;40151;43.606;1.472;2023-03-26T12:24:32;99250.59;;;18.21;51.67
54236;BME280;40151;43.606;1.472;2023-03-26T12:29:52;99246.25;;;18.20;51.73
54236;BME280;40151;43.606;1.472;2023-03-26T12:32:24;99240.97;;;18.20;51.60
54236;BME280;40151;43.606;1.472;2023-03-26T12:34:56;99244.34;;;18.22;51.54
54236;BME280;40151;43.606;1.472;2023-03-26T12:37:40;99224.16;;;18.21;51.73
54236;BME280;40151;43.606;1.472;2023-03-26T12:42:51;99219.69;;;18.23;51.70
54236;BME280;40151;43.606;1.472;2023-03-26T12:45:22;99233.78;;;18.22;51.44
54236;BME280;40151;43.606;1.472;2023-03-26T12:47:52;99212.66;;;18.22;51.47
54236;BME280;40151;43.606;1.472;2023-03-26T12:50:22;99214.28;;;18.25;51.29
54236;BME280;40151;43.606;1.472;2023-03-26T12:55:41;99224.03;;;18.24;51.50
54236;BME280;40151;43.606;1.472;2023-03-26T13:11:37;99187.66;;;18.30;51.23
54236;BME280;40151;43.606;1.472;2023-03-26T13:17:21;99193.78;;;18.30;51.45
54236;BME280;40151;43.606;1.472;2023-03-26T13:22:57;99185.69;;;18.33;51.65
54236;BME280;40151;43.606;1.472;2023-03-26T13:25:42;99177.69;;;18.35;51.14
54236;BME280;40151;43.606;1.472;2023-03-26T13:28:33;99211.16;;;18.34;51.31
54236;BME280;40151;43.606;1.472;2023-03-26T13:31:09;99203.16;;;18.36;51.28
54236;BME280;40151;43.606;1.472;2023-03-26T13:33:56;99210.31;;;18.34;51.06
54236;BME280;40151;43.606;1.472;2023-03-26T13:36:29;99200.59;;;18.34;51.31
54236;BME280;40151;43.606;1.472;2023-03-26T13:39:15;99220.78;;;18.35;51.21
54236;BME280;40151;43.606;1.472;2023-03-26T13:44:59;99190.72;;;18.38;51.08
54236;BME280;40151;43.606;1.472;2023-03-26T13:47:20;99219.78;;;18.38;51.19
54236;BME280;40151;43.606;1.472;2023-03-26T13:49:49;99200.34;;;18.39;51.13
54236;BME280;40151;43.606;1.472;2023-03-26T13:57:42;99210.09;;;18.38;50.99
54236;BME280;40151;43.606;1.472;2023-03-26T14:00:21;99209.97;;;18.40;51.02
54236;BME280;40151;43.606;1.472;2023-03-26T14:03:01;99223.19;;;18.40;51.21
54236;BME280;40151;43.606;1.472;2023-03-26T14:05:48;99268.97;;;18.41;50.99
54236;BME280;40151;43.606;1.472;2023-03-26T14:08:43;99242.63;;;18.39;51.04
54236;BME280;40151;43.606;1.472;2023-03-26T14:11:49;99240.75;;;18.41;51.12
54236;BME280;40151;43.606;1.472;2023-03-26T14:14:35;99239.81;;;18.42;51.23
54236;BME280;40151;43.606;1.472;2023-03-26T14:17:42;99220.53;;;18.40;50.98
54236;BME280;40151;43.606;1.472;2023-03-26T14:32:01;99205.47;;;18.42;51.05
54236;BME280;40151;43.606;1.472;2023-03-26T14:40:36;99195.66;;;18.44;50.92
54236;BME280;40151;43.606;1.472;2023-03-26T14:43:18;99190.38;;;18.44;51.01
54236;BME280;40151;43.606;1.472;2023-03-26T14:45:58;99181.53;;;18.45;51.04
54236;BME280;40151;43.606;1.472;2023-03-26T14:49:13;99188.50;;;18.46;51.23
54236;BME280;40151;43.606;1.472;2023-03-26T14:51:48;99184.09;;;18.47;51.06
54236;BME280;40151;43.606;1.472;2023-03-26T14:54:21;99184.09;;;18.47;50.93
54236;BME280;40151;43.606;1.472;2023-03-26T15:11:33;99188.34;;;18.49;51.00
54236;BME280;40151;43.606;1.472;2023-03-26T15:17:38;99180.34;;;18.51;50.94
54236;BME280;40151;43.606;1.472;2023-03-26T15:39:52;99131.91;;;18.50;50.77
54236;BME280;40151;43.606;1.472;2023-03-26T15:42:36;99127.66;;;18.48;50.64
54236;BME280;40151;43.606;1.472;2023-03-26T15:47:55;99107.38;;;18.48;50.71
54236;BME280;40151;43.606;1.472;2023-03-26T15:50:36;99121.53;;;18.47;50.56
54236;BME280;40151;43.606;1.472;2023-03-26T16:04:15;99126.81;;;18.47;50.33
54236;BME280;40151;43.606;1.472;2023-03-26T16:06:59;99114.38;;;18.49;50.26
54236;BME280;40151;43.606;1.472;2023-03-26T16:09:37;99096.16;;;18.45;50.57
54236;BME280;40151;43.606;1.472;2023-03-26T16:14:47;99100.41;;;18.47;50.39
54236;BME280;40151;43.606;1.472;2023-03-26T16:20:52;99093.41;;;18.46;50.48
54236;BME280;40151;43.606;1.472;2023-03-26T16:23:33;99095.28;;;18.44;50.54
54236;BME280;40151;43.606;1.472;2023-03-26T16:31:23;99082.34;;;18.40;50.59
54236;BME280;40151;43.606;1.472;2023-03-26T16:36:37;99101.84;;;18.37;50.34
54236;BME280;40151;43.606;1.472;2023-03-26T16:46:59;99069.41;;;18.35;50.40
54236;BME280;40151;43.606;1.472;2023-03-26T16:52:21;99097.41;;;18.37;50.45
54236;BME280;40151;43.606;1.472;2023-03-26T17:08:02;99101.25;;;18.32;50.73
54236;BME280;40151;43.606;1.472;2023-03-26T17:10:43;99108.41;;;18.30;50.77
54236;BME280;40151;43.606;1.472;2023-03-26T17:13:44;99104.03;;;18.29;50.71
54236;BME280;40151;43.606;1.472;2023-03-26T17:16:25;99115.56;;;18.28;50.32
54236;BME280;40151;43.606;1.472;2023-03-26T17:24:46;99103.47;;;18.23;50.90
54236;BME280;40151;43.606;1.472;2023-03-26T17:35:49;99085.91;;;18.22;50.48
54236;BME280;40151;43.606;1.472;2023-03-26T17:40:56;99090.34;;;18.22;50.61
54236;BME280;40151;43.606;1.472;2023-03-26T17:43:44;99079.00;;;18.20;50.99
54236;BME280;40151;43.606;1.472;2023-03-26T17:46:33;99093.81;;;18.22;50.84
54236;BME280;40151;43.606;1.472;2023-03-26T17:51:46;99093.06;;;18.20;50.67
54236;BME280;40151;43.606;1.472;2023-03-26T17:54:34;99089.00;;;18.15;50.78
54236;BME280;40151;43.606;1.472;2023-03-26T18:00:15;99089.91;;;18.14;50.83
54236;BME280;40151;43.606;1.472;2023-03-26T18:02:46;99124.22;;;18.14;50.73
54236;BME280;40151;43.606;1.472;2023-03-26T18:05:15;99133.97;;;18.13;51.17
54236;BME280;40151;43.606;1.472;2023-03-26T18:18:53;99142.97;;;18.09;50.67
54236;BME280;40151;43.606;1.472;2023-03-26T18:21:38;99154.53;;;18.06;50.87
54236;BME280;40151;43.606;1.472;2023-03-26T18:24:13;99143.16;;;18.06;51.14
54236;BME280;40151;43.606;1.472;2023-03-26T18:26:42;99145.84;;;18.04;50.97
54236;BME280;40151;43.606;1.472;2023-03-26T18:29:27;99162.50;;;18.05;50.98
54236;BME280;40151;43.606;1.472;2023-03-26T18:31:57;99144.13;;;18.03;50.98
54236;BME280;40151;43.606;1.472;2023-03-26T18:34:25;99159.97;;;18.03;50.89
54236;BME280;40151;43.606;1.472;2023-03-26T18:37:07;99174.09;;;18.02;51.15
54236;BME280;40151;43.606;1.472;2023-03-26T18:39:36;99190.88;;;18.01;51.08
54236;BME280;40151;43.606;1.472;2023-03-26T18:42:03;99190.97;;;18.00;51.21
54236;BME280;40151;43.606;1.472;2023-03-26T18:44:31;99197.94;;;18.01;51.15
54236;BME280;40151;43.606;1.472;2023-03-26T18:47:03;99214.81;;;17.98;51.16
54236;BME280;40151;43.606;1.472;2023-03-26T18:49:30;99221.94;;;17.96;51.24
54236;BME280;40151;43.606;1.472;2023-03-26T18:51:55;99226.31;;;17.97;50.94
54236;BME280;40151;43.606;1.472;2023-03-26T18:54:20;99226.38;;;17.95;51.36
54236;BME280;40151;43.606;1.472;2023-03-26T18:56:47;99233.34;;;17.96;51.16
54236;BME280;40151;43.606;1.472;2023-03-26T19:01:46;99221.09;;;17.95;51.30